sensor_id;sensor_type;location;lat;lon;timestamp;pressure;altitude;pressure_sealevel;temperature;humidity
38022;BME280;23832;43.216;27.946;2023-05-09T00:01:06;101375.56;;;16.51;100.00
38022;BME280;23832;43.216;27.946;2023-05-09T00:03:08;101379.53;;;16.61;100.00
38022;BME280;23832;43.216;27.946;2023-05-09T00:05:12;101368.94;;;16.68;100.00
38022;BME280;23832;43.216;27.946;2023-05-09T00:07:15;101371.94;;;16.58;100.00
38022;BME280;23832;43.216;27.946;2023-05-09T00:09:18;101369.03;;;16.53;100.00
38022;BME280;23832;43.216;27.946;2023-05-09T00:11:22;101377.59;;;16.70;100.00
38022;BME280;23832;43.216;27.946;2023-05-09T00:13:25;101362.63;;;16.69;100.00
38022;BME280;23832;43.216;27.946;2023-05-09T00:15:36;101364.91;;;16.72;100.00
38022;BME280;23832;43.216;27.946;2023-05-09T00:17:39;101357.56;;;16.53;100.00
38022;BME280;23832;43.216;27.946;2023-05-09T00:19:44;101363.25;;;16.71;100.00
38022;BME280;23832;43.216;27.946;2023-05-09T00:21:49;101358.22;;;16.89;100.00
38022;BME280;23832;43.216;27.946;2023-05-09T00:24:08;101365.56;;;16.53;100.00
38022;BME280;23832;43.216;27.946;2023-05-09T00:26:10;101365.41;;;16.33;100.00
38022;BME280;23832;43.216;27.946;2023-05-09T00:28:14;101371.47;;;16.48;100.00
38022;BME280;23832;43.216;27.946;2023-05-09T00:30:22;101367.13;;;16.40;100.00
38022;BME280;23832;43.216;27.946;2023-05-09T00:32:25;101373.59;;;16.31;100.00
38022;BME280;23832;43.216;27.946;2023-05-09T00:34:28;101368.41;;;16.23;100.00
38022;BME280;23832;43.216;27.946;2023-05-09T00:36:30;101372.56;;;16.32;100.00
38022;BME280;23832;43.216;27.946;2023-05-09T00:38:36;101373.84;;;16.15;100.00
38022;BME280;23832;43.216;27.946;2023-05-09T00:40:38;101378.44;;;16.21;100.00
38022;BME280;23832;43.216;27.946;2023-05-09T00:42:40;101376.44;;;16.30;100.00
38022;BME280;23832;43.216;27.946;2023-05-09T00:44:43;101378.97;;;16.66;100.00
38022;BME280;23832;43.216;27.946;2023-05-09T00:46:45;101385.06;;;16.32;100.00
38022;BME280;23832;43.216;27.946;2023-05-09T00:48:48;101384.03;;;16.54;100.00
38022;BME280;23832;43.216;27.946;2023-05-09T00:50:51;101377.88;;;16.54;100.00
38022;BME280;23832;43.216;27.946;2023-05-09T00:52:54;101386.50;;;16.34;100.00
38022;BME280;23832;43.216;27.946;2023-05-09T00:55:01;101382.53;;;16.24;100.00
38022;BME280;23832;43.216;27.946;2023-05-09T00:57:07;101386.66;;;16.05;100.00
38022;BME280;23832;43.216;27.946;2023-05-09T00:59:12;101387.84;;;16.24;100.00
38022;BME280;23832;43.216;27.946;2023-05-09T01:01:15;101386.34;;;16.14;100.00
38022;BME280;23832;43.216;27.946;2023-05-09T01:03:17;101390.72;;;16.01;100.00
38022;BME280;23832;43.216;27.946;2023-05-09T01:05:20;101391.59;;;16.29;100.00
38022;BME280;23832;43.216;27.946;2023-05-09T01:07:28;101390.59;;;16.09;100.00
38022;BME280;23832;43.216;27.946;2023-05-09T01:09:34;101400.19;;;15.88;100.00
38022;BME280;23832;43.216;27.946;2023-05-09T01:11:41;101398.03;;;15.77;100.00
38022;BME280;23832;43.216;27.946;2023-05-09T01:14:01;101398.00;;;15.92;100.00
38022;BME280;23832;43.216;27.946;2023-05-09T01:16:11;101399.25;;;15.96;100.00
38022;BME280;23832;43.216;27.946;2023-05-09T01:18:23;101394.88;;;15.88;100.00
38022;BME280;23832;43.216;27.946;2023-05-09T01:20:29;101398.94;;;15.84;100.00
38022;BME280;23832;43.216;27.946;2023-05-09T01:22:34;101397.81;;;15.94;100.00
38022;BME280;23832;43.216;27.946;2023-05-09T01:24:46;101399.56;;;15.65;100.00
38022;BME280;23832;43.216;27.946;2023-05-09T01:26:55;101399.59;;;15.72;100.00
38022;BME280;23832;43.216;27.946;2023-05-09T01:29:18;101390.97;;;15.84;100.00
38022;BME280;23832;43.216;27.946;2023-05-09T01:31:26;101383.44;;;16.09;100.00
38022;BME280;23832;43.216;27.946;2023-05-09T01:33:29;101390.47;;;15.96;100.00
38022;BME280;23832;43.216;27.946;2023-05-09T01:35:34;101385.78;;;15.76;100.00
38022;BME280;23832;43.216;27.946;2023-05-09T01:37:41;101388.56;;;15.89;100.00
38022;BME280;23832;43.216;27.946;2023-05-09T01:39:44;101388.44;;;16.19;100.00
38022;BME280;23832;43.216;27.946;2023-05-09T01:41:48;101386.78;;;16.18;100.00
38022;BME280;23832;43.216;27.946;2023-05-09T01:43:54;101388.22;;;15.78;100.00
38022;BME280;23832;43.216;27.946;2023-05-09T01:46:00;101388.50;;;15.83;100.00
38022;BME280;23832;43.216;27.946;2023-05-09T01:48:03;101385.38;;;15.79;100.00
38022;BME280;23832;43.216;27.946;2023-05-09T01:50:11;101379.94;;;15.87;100.00
38022;BME280;23832;43.216;27.946;2023-05-09T01:52:15;101372.72;;;15.81;100.00
38022;BME280;23832;43.216;27.946;2023-05-09T01:54:22;101378.03;;;15.81;100.00
38022;BME280;23832;43.216;27.946;2023-05-09T01:56:25;101373.09;;;15.78;100.00
38022;BME280;23832;43.216;27.946;2023-05-09T01:58:28;101372.16;;;15.65;100.00
38022;BME280;23832;43.216;27.946;2023-05-09T02:00:32;101368.66;;;16.07;100.00
38022;BME280;23832;43.216;27.946;2023-05-09T02:02:36;101376.66;;;15.85;100.00
38022;BME280;23832;43.216;27.946;2023-05-09T02:04:38;101374.06;;;15.92;100.00
38022;BME280;23832;43.216;27.946;2023-05-09T02:06:41;101366.84;;;15.65;100.00
38022;BME280;23832;43.216;27.946;2023-05-09T02:08:44;101376.03;;;15.83;100.00
38022;BME280;23832;43.216;27.946;2023-05-09T02:10:46;101377.44;;;16.01;100.00
38022;BME280;23832;43.216;27.946;2023-05-09T02:12:51;101381.19;;;15.70;100.00
38022;BME280;23832;43.216;27.946;2023-05-09T02:14:57;101380.31;;;15.48;100.00
38022;BME280;23832;43.216;27.946;2023-05-09T02:17:02;101375.81;;;15.49;100.00
38022;BME280;23832;43.216;27.946;2023-05-09T02:19:11;101381.13;;;15.49;100.00
38022;BME280;23832;43.216;27.946;2023-05-09T02:21:13;101378.66;;;15.62;100.00
38022;BME280;23832;43.216;27.946;2023-05-09T02:23:16;101382.84;;;15.71;100.00
38022;BME280;23832;43.216;27.946;2023-05-09T02:25:18;101385.16;;;15.45;100.00
38022;BME280;23832;43.216;27.946;2023-05-09T02:27:23;101388.34;;;15.19;100.00
38022;BME280;23832;43.216;27.946;2023-05-09T02:29:28;101324.53;;;14.83;100.00
38022;BME280;23832;43.216;27.946;2023-05-09T02:31:37;101397.13;;;14.90;100.00
38022;BME280;23832;43.216;27.946;2023-05-09T02:33:42;101400.31;;;14.70;100.00
38022;BME280;23832;43.216;27.946;2023-05-09T02:35:47;101401.25;;;14.77;100.00
38022;BME280;23832;43.216;27.946;2023-05-09T02:37:50;101409.78;;;15.02;100.00
38022;BME280;23832;43.216;27.946;2023-05-09T02:39:53;101397.41;;;14.95;100.00
38022;BME280;23832;43.216;27.946;2023-05-09T02:42:04;101404.53;;;14.80;100.00
38022;BME280;23832;43.216;27.946;2023-05-09T02:44:10;101398.03;;;14.97;100.00
38022;BME280;23832;43.216;27.946;2023-05-09T02:46:12;101398.13;;;14.89;100.00
38022;BME280;23832;43.216;27.946;2023-05-09T02:48:21;101396.09;;;14.91;100.00
38022;BME280;23832;43.216;27.946;2023-05-09T02:50:24;101393.56;;;15.12;100.00
38022;BME280;23832;43.216;27.946;2023-05-09T02:52:28;101398.13;;;15.03;100.00
38022;BME280;23832;43.216;27.946;2023-05-09T02:54:32;101394.81;;;15.16;100.00
38022;BME280;23832;43.216;27.946;2023-05-09T02:56:36;101399.25;;;14.94;100.00
38022;BME280;23832;43.216;27.946;2023-05-09T02:58:41;101399.59;;;14.76;100.00
38022;BME280;23832;43.216;27.946;2023-05-09T03:00:50;101393.28;;;15.22;100.00
38022;BME280;23832;43.216;27.946;2023-05-09T03:02:52;101391.44;;;15.37;100.00
38022;BME280;23832;43.216;27.946;2023-05-09T03:04:55;101396.84;;;15.14;100.00
38022;BME280;23832;43.216;27.946;2023-05-09T03:07:00;101400.53;;;15.28;100.00
38022;BME280;23832;43.216;27.946;2023-05-09T03:09:08;101397.94;;;15.05;100.00
38022;BME280;23832;43.216;27.946;2023-05-09T03:11:10;101399.84;;;15.26;100.00
38022;BME280;23832;43.216;27.946;2023-05-09T03:13:13;101407.88;;;15.62;100.00
38022;BME280;23832;43.216;27.946;2023-05-09T03:15:16;101409.53;;;15.63;100.00
38022;BME280;23832;43.216;27.946;2023-05-09T03:17:24;101407.28;;;15.81;100.00
38022;BME280;23832;43.216;27.946;2023-05-09T03:19:28;101408.88;;;15.97;100.00
38022;BME280;23832;43.216;27.946;2023-05-09T03:21:30;101417.56;;;16.06;100.00
38022;BME280;23832;43.216;27.946;2023-05-09T03:23:33;101408.44;;;15.94;100.00
38022;BME280;23832;43.216;27.946;2023-05-09T03:25:37;101413.63;;;16.23;100.00
38022;BME280;23832;43.216;27.946;2023-05-09T03:27:38;101412.28;;;16.34;100.00
38022;BME280;23832;43.216;27.946;2023-05-09T03:29:41;101412.91;;;16.57;100.00
38022;BME280;23832;43.216;27.946;2023-05-09T03:31:43;101422.88;;;16.49;100.00
38022;BME280;23832;43.216;27.946;2023-05-09T03:33:45;101413.50;;;16.31;100.00
38022;BME280;23832;43.216;27.946;2023-05-09T03:35:50;101417.06;;;16.66;100.00
38022;BME280;23832;43.216;27.946;2023-05-09T03:37:52;101412.44;;;16.75;100.00
38022;BME280;23832;43.216;27.946;2023-05-09T03:39:57;101425.00;;;16.81;100.00
38022;BME280;23832;43.216;27.946;2023-05-09T03:42:03;101419.16;;;16.71;100.00
38022;BME280;23832;43.216;27.946;2023-05-09T03:44:06;101417.25;;;16.65;100.00
38022;BME280;23832;43.216;27.946;2023-05-09T03:46:17;101420.13;;;16.63;100.00
38022;BME280;23832;43.216;27.946;2023-05-09T03:48:19;101422.75;;;16.35;100.00
38022;BME280;23832;43.216;27.946;2023-05-09T03:50:21;101420.97;;;16.42;100.00
38022;BME280;23832;43.216;27.946;2023-05-09T03:52:24;101425.81;;;16.82;100.00
38022;BME280;23832;43.216;27.946;2023-05-09T03:54:26;101427.03;;;16.58;100.00
38022;BME280;23832;43.216;27.946;2023-05-09T03:56:29;101432.63;;;16.63;100.00
38022;BME280;23832;43.216;27.946;2023-05-09T03:58:35;101439.63;;;16.00;100.00
38022;BME280;23832;43.216;27.946;2023-05-09T04:00:37;101434.03;;;16.37;100.00
38022;BME280;23832;43.216;27.946;2023-05-09T04:02:39;101429.84;;;16.50;100.00
38022;BME280;23832;43.216;27.946;2023-05-09T04:04:44;101432.16;;;16.59;100.00
38022;BME280;23832;43.216;27.946;2023-05-09T04:06:49;101441.56;;;16.34;100.00
38022;BME280;23832;43.216;27.946;2023-05-09T04:08:51;101444.16;;;16.06;100.00
38022;BME280;23832;43.216;27.946;2023-05-09T04:10:53;101439.78;;;15.98;100.00
38022;BME280;23832;43.216;27.946;2023-05-09T04:12:55;101442.44;;;15.98;100.00
38022;BME280;23832;43.216;27.946;2023-05-09T04:14:59;101444.97;;;16.06;100.00
38022;BME280;23832;43.216;27.946;2023-05-09T04:17:01;101448.78;;;15.97;100.00
38022;BME280;23832;43.216;27.946;2023-05-09T04:19:03;101452.25;;;15.98;100.00
38022;BME280;23832;43.216;27.946;2023-05-09T04:21:09;101449.81;;;15.81;100.00
38022;BME280;23832;43.216;27.946;2023-05-09T04:23:12;101457.66;;;16.04;100.00
38022;BME280;23832;43.216;27.946;2023-05-09T04:25:14;101452.28;;;16.19;100.00
38022;BME280;23832;43.216;27.946;2023-05-09T04:27:16;101458.22;;;16.21;100.00
38022;BME280;23832;43.216;27.946;2023-05-09T04:29:18;101454.88;;;16.55;100.00
38022;BME280;23832;43.216;27.946;2023-05-09T04:31:23;101452.06;;;16.63;100.00
38022;BME280;23832;43.216;27.946;2023-05-09T04:33:25;101461.88;;;16.84;100.00
38022;BME280;23832;43.216;27.946;2023-05-09T04:35:28;101459.41;;;16.61;100.00
38022;BME280;23832;43.216;27.946;2023-05-09T04:37:30;101452.50;;;16.67;100.00
38022;BME280;23832;43.216;27.946;2023-05-09T04:39:32;101462.66;;;16.57;100.00
38022;BME280;23832;43.216;27.946;2023-05-09T04:41:34;101454.03;;;16.55;100.00
38022;BME280;23832;43.216;27.946;2023-05-09T04:43:36;101459.72;;;16.52;100.00
38022;BME280;23832;43.216;27.946;2023-05-09T04:45:37;101454.34;;;16.66;100.00
38022;BME280;23832;43.216;27.946;2023-05-09T04:47:42;101466.66;;;16.95;100.00
38022;BME280;23832;43.216;27.946;2023-05-09T04:49:45;101465.13;;;17.08;100.00
38022;BME280;23832;43.216;27.946;2023-05-09T04:51:59;101470.88;;;16.62;100.00
38022;BME280;23832;43.216;27.946;2023-05-09T04:54:07;101463.25;;;16.80;100.00
38022;BME280;23832;43.216;27.946;2023-05-09T04:56:13;101467.22;;;16.63;100.00
38022;BME280;23832;43.216;27.946;2023-05-09T04:58:15;101466.53;;;16.76;100.00
38022;BME280;23832;43.216;27.946;2023-05-09T05:00:19;101462.69;;;17.13;100.00
38022;BME280;23832;43.216;27.946;2023-05-09T05:02:22;101471.75;;;17.25;100.00
38022;BME280;23832;43.216;27.946;2023-05-09T05:04:27;101464.94;;;16.81;100.00
38022;BME280;23832;43.216;27.946;2023-05-09T05:06:30;101465.63;;;16.68;100.00
38022;BME280;23832;43.216;27.946;2023-05-09T05:08:33;101469.25;;;16.82;100.00
38022;BME280;23832;43.216;27.946;2023-05-09T05:10:38;101467.06;;;16.92;100.00
38022;BME280;23832;43.216;27.946;2023-05-09T05:12:40;101472.94;;;17.16;100.00
38022;BME280;23832;43.216;27.946;2023-05-09T05:14:43;101472.13;;;17.56;100.00
38022;BME280;23832;43.216;27.946;2023-05-09T05:16:45;101471.06;;;17.44;100.00
38022;BME280;23832;43.216;27.946;2023-05-09T05:18:48;101470.47;;;17.49;100.00
38022;BME280;23832;43.216;27.946;2023-05-09T05:20:52;101470.72;;;17.60;100.00
38022;BME280;23832;43.216;27.946;2023-05-09T05:22:54;101475.25;;;17.67;100.00
38022;BME280;23832;43.216;27.946;2023-05-09T05:24:57;101474.03;;;17.69;100.00
38022;BME280;23832;43.216;27.946;2023-05-09T05:27:00;101473.91;;;17.43;100.00
38022;BME280;23832;43.216;27.946;2023-05-09T05:29:02;101478.09;;;17.58;100.00
38022;BME280;23832;43.216;27.946;2023-05-09T05:31:05;101474.72;;;17.78;100.00
38022;BME280;23832;43.216;27.946;2023-05-09T05:33:10;101484.41;;;17.92;100.00
38022;BME280;23832;43.216;27.946;2023-05-09T05:35:12;101484.84;;;18.02;100.00
38022;BME280;23832;43.216;27.946;2023-05-09T05:37:16;101482.03;;;18.37;100.00
38022;BME280;23832;43.216;27.946;2023-05-09T05:39:19;101491.50;;;18.59;100.00
38022;BME280;23832;43.216;27.946;2023-05-09T05:41:21;101487.03;;;18.80;100.00
38022;BME280;23832;43.216;27.946;2023-05-09T05:43:24;101491.75;;;18.78;100.00
38022;BME280;23832;43.216;27.946;2023-05-09T05:45:28;101496.06;;;18.79;100.00
38022;BME280;23832;43.216;27.946;2023-05-09T05:47:30;101494.97;;;19.33;100.00
38022;BME280;23832;43.216;27.946;2023-05-09T05:49:34;101493.25;;;19.58;100.00
38022;BME280;23832;43.216;27.946;2023-05-09T05:51:36;101484.75;;;19.74;100.00
38022;BME280;23832;43.216;27.946;2023-05-09T05:53:41;101482.41;;;20.29;100.00
38022;BME280;23832;43.216;27.946;2023-05-09T05:55:44;101476.69;;;20.76;100.00
38022;BME280;23832;43.216;27.946;2023-05-09T05:57:50;101479.91;;;20.84;100.00
38022;BME280;23832;43.216;27.946;2023-05-09T05:59:54;101484.56;;;20.14;88.64
38022;BME280;23832;43.216;27.946;2023-05-09T06:01:57;101482.41;;;19.98;89.22
38022;BME280;23832;43.216;27.946;2023-05-09T06:04:00;101480.88;;;20.08;85.60
38022;BME280;23832;43.216;27.946;2023-05-09T06:06:02;101479.47;;;20.69;83.03
38022;BME280;23832;43.216;27.946;2023-05-09T06:08:05;101481.63;;;21.04;77.75
38022;BME280;23832;43.216;27.946;2023-05-09T06:10:09;101482.44;;;21.04;74.73
38022;BME280;23832;43.216;27.946;2023-05-09T06:12:19;101480.47;;;21.11;73.99
38022;BME280;23832;43.216;27.946;2023-05-09T06:14:34;101481.91;;;20.95;73.34
38022;BME280;23832;43.216;27.946;2023-05-09T06:16:36;101485.09;;;20.86;74.40
38022;BME280;23832;43.216;27.946;2023-05-09T06:18:38;101489.31;;;20.93;81.80
38022;BME280;23832;43.216;27.946;2023-05-09T06:20:40;101482.59;;;21.64;77.21
38022;BME280;23832;43.216;27.946;2023-05-09T06:22:43;101479.34;;;21.44;75.64
38022;BME280;23832;43.216;27.946;2023-05-09T06:24:46;101485.69;;;21.49;73.68
38022;BME280;23832;43.216;27.946;2023-05-09T06:26:50;101481.81;;;21.45;70.56
38022;BME280;23832;43.216;27.946;2023-05-09T06:28:52;101479.09;;;21.64;68.90
38022;BME280;23832;43.216;27.946;2023-05-09T06:30:59;101477.69;;;21.61;66.94
38022;BME280;23832;43.216;27.946;2023-05-09T06:33:04;101483.06;;;21.43;67.04
38022;BME280;23832;43.216;27.946;2023-05-09T06:35:07;101479.31;;;21.80;66.00
38022;BME280;23832;43.216;27.946;2023-05-09T06:37:09;101492.97;;;21.79;66.02
38022;BME280;23832;43.216;27.946;2023-05-09T06:39:11;101496.41;;;21.49;66.15
38022;BME280;23832;43.216;27.946;2023-05-09T06:41:15;101493.25;;;21.16;70.25
38022;BME280;23832;43.216;27.946;2023-05-09T06:43:23;101495.25;;;21.20;70.87
38022;BME280;23832;43.216;27.946;2023-05-09T06:45:27;101499.31;;;20.86;71.64
38022;BME280;23832;43.216;27.946;2023-05-09T06:47:30;101491.47;;;21.46;67.41
38022;BME280;23832;43.216;27.946;2023-05-09T06:49:32;101494.91;;;21.35;67.67
38022;BME280;23832;43.216;27.946;2023-05-09T06:51:35;101486.81;;;20.98;68.30
38022;BME280;23832;43.216;27.946;2023-05-09T06:53:40;101490.25;;;21.06;67.58
38022;BME280;23832;43.216;27.946;2023-05-09T06:55:43;101487.59;;;20.56;70.55
38022;BME280;23832;43.216;27.946;2023-05-09T06:57:49;101493.72;;;20.63;71.06
38022;BME280;23832;43.216;27.946;2023-05-09T06:59:53;101488.41;;;20.81;72.52
38022;BME280;23832;43.216;27.946;2023-05-09T07:01:55;101493.72;;;20.63;78.15
38022;BME280;23832;43.216;27.946;2023-05-09T07:03:58;101495.63;;;20.24;79.87
38022;BME280;23832;43.216;27.946;2023-05-09T07:06:04;101490.66;;;20.59;74.97
38022;BME280;23832;43.216;27.946;2023-05-09T07:08:06;101484.81;;;20.94;70.95
38022;BME280;23832;43.216;27.946;2023-05-09T07:10:08;101481.25;;;21.18;67.96
38022;BME280;23832;43.216;27.946;2023-05-09T07:12:11;101485.38;;;20.78;68.11
38022;BME280;23832;43.216;27.946;2023-05-09T07:14:13;101495.81;;;21.29;66.69
38022;BME280;23832;43.216;27.946;2023-05-09T07:16:19;101491.00;;;20.94;67.00
38022;BME280;23832;43.216;27.946;2023-05-09T07:18:22;101490.63;;;20.84;67.19
38022;BME280;23832;43.216;27.946;2023-05-09T07:20:24;101482.31;;;20.92;66.57
38022;BME280;23832;43.216;27.946;2023-05-09T07:22:29;101487.00;;;20.79;67.17
38022;BME280;23832;43.216;27.946;2023-05-09T07:24:31;101487.06;;;20.40;69.79
38022;BME280;23832;43.216;27.946;2023-05-09T07:26:34;101489.34;;;20.44;68.76
38022;BME280;23832;43.216;27.946;2023-05-09T07:28:37;101495.25;;;20.52;68.46
38022;BME280;23832;43.216;27.946;2023-05-09T07:30:39;101493.88;;;20.36;68.82
38022;BME280;23832;43.216;27.946;2023-05-09T07:32:44;101500.97;;;20.24;69.71
38022;BME280;23832;43.216;27.946;2023-05-09T07:34:46;101498.03;;;20.32;69.65
38022;BME280;23832;43.216;27.946;2023-05-09T07:36:48;101500.34;;;19.84;73.62
38022;BME280;23832;43.216;27.946;2023-05-09T07:38:50;101504.59;;;19.60;74.99
38022;BME280;23832;43.216;27.946;2023-05-09T07:40:53;101501.84;;;19.73;74.12
38022;BME280;23832;43.216;27.946;2023-05-09T07:42:56;101505.00;;;19.57;75.73
38022;BME280;23832;43.216;27.946;2023-05-09T07:44:58;101508.00;;;19.80;75.31
38022;BME280;23832;43.216;27.946;2023-05-09T07:47:03;101504.03;;;19.96;74.65
38022;BME280;23832;43.216;27.946;2023-05-09T07:49:10;101501.66;;;20.13;73.30
38022;BME280;23832;43.216;27.946;2023-05-09T07:51:13;101506.88;;;20.01;73.71
38022;BME280;23832;43.216;27.946;2023-05-09T07:53:15;101508.84;;;20.12;72.91
38022;BME280;23832;43.216;27.946;2023-05-09T07:55:17;101517.44;;;20.21;72.12
38022;BME280;23832;43.216;27.946;2023-05-09T07:57:23;101508.50;;;20.40;71.24
38022;BME280;23832;43.216;27.946;2023-05-09T07:59:28;101511.25;;;20.27;71.78
38022;BME280;23832;43.216;27.946;2023-05-09T08:01:30;101510.09;;;20.10;71.73
38022;BME280;23832;43.216;27.946;2023-05-09T08:03:34;101513.84;;;20.02;71.68
38022;BME280;23832;43.216;27.946;2023-05-09T08:05:38;101518.44;;;19.95;72.44
38022;BME280;23832;43.216;27.946;2023-05-09T08:07:43;101516.38;;;19.91;71.95
38022;BME280;23832;43.216;27.946;2023-05-09T08:09:48;101509.31;;;20.03;70.59
38022;BME280;23832;43.216;27.946;2023-05-09T08:11:51;101510.31;;;20.15;69.24
38022;BME280;23832;43.216;27.946;2023-05-09T08:13:56;101515.44;;;20.17;69.51
38022;BME280;23832;43.216;27.946;2023-05-09T08:15:59;101519.25;;;20.34;68.54
38022;BME280;23832;43.216;27.946;2023-05-09T08:18:02;101513.97;;;20.59;65.98
38022;BME280;23832;43.216;27.946;2023-05-09T08:20:04;101510.41;;;20.33;67.50
38022;BME280;23832;43.216;27.946;2023-05-09T08:22:11;101501.47;;;20.46;66.49
38022;BME280;23832;43.216;27.946;2023-05-09T08:24:20;101504.44;;;20.63;65.37
38022;BME280;23832;43.216;27.946;2023-05-09T08:26:24;101504.78;;;21.16;62.47
38022;BME280;23832;43.216;27.946;2023-05-09T08:28:26;101502.22;;;21.28;62.28
38022;BME280;23832;43.216;27.946;2023-05-09T08:30:30;101497.94;;;20.77;63.27
38022;BME280;23832;43.216;27.946;2023-05-09T08:32:34;101504.97;;;20.96;63.33
38022;BME280;23832;43.216;27.946;2023-05-09T08:34:36;101502.78;;;21.12;63.11
38022;BME280;23832;43.216;27.946;2023-05-09T08:36:39;101502.88;;;21.23;63.27
38022;BME280;23832;43.216;27.946;2023-05-09T08:38:47;101506.25;;;21.37;62.46
38022;BME280;23832;43.216;27.946;2023-05-09T08:40:50;101505.28;;;21.50;61.62
38022;BME280;23832;43.216;27.946;2023-05-09T08:42:52;101505.78;;;21.77;59.46
38022;BME280;23832;43.216;27.946;2023-05-09T08:44:55;101505.28;;;21.68;59.13
38022;BME280;23832;43.216;27.946;2023-05-09T08:46:59;101502.31;;;20.96;59.18
38022;BME280;23832;43.216;27.946;2023-05-09T08:49:03;101504.06;;;21.03;58.58
38022;BME280;23832;43.216;27.946;2023-05-09T08:51:05;101500.81;;;21.01;58.42
38022;BME280;23832;43.216;27.946;2023-05-09T08:53:08;101500.66;;;20.71;57.82
38022;BME280;23832;43.216;27.946;2023-05-09T08:55:12;101500.53;;;21.09;57.95
38022;BME280;23832;43.216;27.946;2023-05-09T08:57:14;101494.47;;;21.38;57.09
38022;BME280;23832;43.216;27.946;2023-05-09T08:59:17;101505.19;;;21.57;56.72
38022;BME280;23832;43.216;27.946;2023-05-09T09:01:22;101499.91;;;21.50;58.07
38022;BME280;23832;43.216;27.946;2023-05-09T09:03:26;101493.81;;;21.00;58.22
38022;BME280;23832;43.216;27.946;2023-05-09T09:05:29;101499.78;;;21.20;58.55
38022;BME280;23832;43.216;27.946;2023-05-09T09:07:32;101500.94;;;22.16;56.11
38022;BME280;23832;43.216;27.946;2023-05-09T09:09:35;101495.16;;;22.30;55.60
38022;BME280;23832;43.216;27.946;2023-05-09T09:11:43;101492.81;;;22.87;53.84
38022;BME280;23832;43.216;27.946;2023-05-09T09:13:45;101494.91;;;22.97;52.47
38022;BME280;23832;43.216;27.946;2023-05-09T09:15:48;101490.44;;;22.56;52.45
38022;BME280;23832;43.216;27.946;2023-05-09T09:17:51;101493.34;;;22.54;53.53
38022;BME280;23832;43.216;27.946;2023-05-09T09:19:57;101519.63;;;21.92;54.94
38022;BME280;23832;43.216;27.946;2023-05-09T09:22:03;101478.25;;;21.81;56.61
38022;BME280;23832;43.216;27.946;2023-05-09T09:24:09;101480.00;;;21.76;56.81
38022;BME280;23832;43.216;27.946;2023-05-09T09:26:14;101483.72;;;21.75;57.42
38022;BME280;23832;43.216;27.946;2023-05-09T09:30:44;101481.81;;;21.45;58.55
38022;BME280;23832;43.216;27.946;2023-05-09T09:32:50;101479.19;;;20.77;60.13
38022;BME280;23832;43.216;27.946;2023-05-09T09:34:54;101484.19;;;20.42;62.49
38022;BME280;23832;43.216;27.946;2023-05-09T09:37:06;101479.97;;;20.21;65.16
38022;BME280;23832;43.216;27.946;2023-05-09T09:39:08;101491.19;;;20.43;66.12
38022;BME280;23832;43.216;27.946;2023-05-09T09:41:14;101493.66;;;20.38;70.69
38022;BME280;23832;43.216;27.946;2023-05-09T09:43:16;101495.09;;;20.40;69.08
38022;BME280;23832;43.216;27.946;2023-05-09T09:45:19;101492.88;;;20.31;68.44
38022;BME280;23832;43.216;27.946;2023-05-09T09:47:25;101495.66;;;20.18;67.80
38022;BME280;23832;43.216;27.946;2023-05-09T09:49:32;101495.19;;;20.27;67.60
38022;BME280;23832;43.216;27.946;2023-05-09T09:51:36;101497.56;;;19.66;74.20
38022;BME280;23832;43.216;27.946;2023-05-09T09:53:47;101505.19;;;19.49;77.58
38022;BME280;23832;43.216;27.946;2023-05-09T09:55:51;101510.41;;;19.17;82.34
38022;BME280;23832;43.216;27.946;2023-05-09T09:57:59;101497.50;;;19.08;84.11
38022;BME280;23832;43.216;27.946;2023-05-09T10:00:01;101510.13;;;19.59;80.52
38022;BME280;23832;43.216;27.946;2023-05-09T10:02:04;101510.75;;;19.54;84.15
38022;BME280;23832;43.216;27.946;2023-05-09T10:04:13;101507.97;;;19.09;86.88
38022;BME280;23832;43.216;27.946;2023-05-09T10:06:16;101510.63;;;18.56;87.83
38022;BME280;23832;43.216;27.946;2023-05-09T10:08:18;101514.03;;;18.24;88.84
38022;BME280;23832;43.216;27.946;2023-05-09T10:10:20;101506.69;;;18.39;86.44
38022;BME280;23832;43.216;27.946;2023-05-09T10:12:21;101512.50;;;18.82;81.26
38022;BME280;23832;43.216;27.946;2023-05-09T10:14:25;101512.94;;;18.79;80.20
38022;BME280;23832;43.216;27.946;2023-05-09T10:16:28;101511.25;;;19.18;74.38
38022;BME280;23832;43.216;27.946;2023-05-09T10:18:33;101515.97;;;19.09;71.87
38022;BME280;23832;43.216;27.946;2023-05-09T10:20:43;101507.53;;;19.25;70.03
38022;BME280;23832;43.216;27.946;2023-05-09T10:22:54;101516.75;;;19.23;69.16
38022;BME280;23832;43.216;27.946;2023-05-09T10:25:01;101513.66;;;19.46;67.97
38022;BME280;23832;43.216;27.946;2023-05-09T10:27:05;101509.66;;;19.75;67.06
38022;BME280;23832;43.216;27.946;2023-05-09T10:29:11;101519.13;;;19.77;66.88
38022;BME280;23832;43.216;27.946;2023-05-09T10:31:15;101512.34;;;19.75;66.26
38022;BME280;23832;43.216;27.946;2023-05-09T10:33:22;101521.03;;;19.64;68.15
38022;BME280;23832;43.216;27.946;2023-05-09T10:35:25;101516.50;;;19.64;66.83
38022;BME280;23832;43.216;27.946;2023-05-09T10:37:30;101516.25;;;19.72;66.02
38022;BME280;23832;43.216;27.946;2023-05-09T10:39:33;101520.69;;;19.20;67.79